sensor_id;sensor_type;location;lat;lon;timestamp;P1;durP1;ratioP1;P2;durP2;ratioP2
3149;SDS011;32503;47.748;8.960;2022-08-01T00:02:22;5.00;;;4.57;;
3149;SDS011;32503;47.748;8.960;2022-08-01T00:04:49;4.87;;;4.67;;
3149;SDS011;32503;47.748;8.960;2022-08-01T00:07:16;5.13;;;4.83;;
3149;SDS011;32503;47.748;8.960;2022-08-01T00:09:43;5.17;;;4.97;;
3149;SDS011;32503;47.748;8.960;2022-08-01T00:12:10;4.50;;;4.40;;
3149;SDS011;32503;47.748;8.960;2022-08-01T00:14:37;5.10;;;4.90;;
3149;SDS011;32503;47.748;8.960;2022-08-01T00:17:05;4.97;;;4.57;;
3149;SDS011;32503;47.748;8.960;2022-08-01T00:19:33;4.60;;;4.40;;
3149;SDS011;32503;47.748;8.960;2022-08-01T00:22:00;5.30;;;5.10;;
3149;SDS011;32503;47.748;8.960;2022-08-01T00:24:28;4.87;;;4.77;;
3149;SDS011;32503;47.748;8.960;2022-08-01T00:26:55;4.60;;;4.50;;
3149;SDS011;32503;47.748;8.960;2022-08-01T00:29:22;4.97;;;4.67;;
3149;SDS011;32503;47.748;8.960;2022-08-01T00:31:49;4.50;;;4.30;;
3149;SDS011;32503;47.748;8.960;2022-08-01T00:34:16;5.00;;;4.80;;
3149;SDS011;32503;47.748;8.960;2022-08-01T00:36:45;4.80;;;4.63;;
3149;SDS011;32503;47.748;8.960;2022-08-01T00:39:12;4.70;;;4.47;;
3149;SDS011;32503;47.748;8.960;2022-08-01T00:41:39;5.13;;;4.93;;
3149;SDS011;32503;47.748;8.960;2022-08-01T00:44:07;5.00;;;4.70;;
3149;SDS011;32503;47.748;8.960;2022-08-01T00:46:34;4.80;;;4.60;;
3149;SDS011;32503;47.748;8.960;2022-08-01T00:49:01;5.27;;;4.97;;
3149;SDS011;32503;47.748;8.960;2022-08-01T00:51:29;5.10;;;4.80;;
3149;SDS011;32503;47.748;8.960;2022-08-01T00:53:58;4.70;;;4.50;;
3149;SDS011;32503;47.748;8.960;2022-08-01T00:56:25;4.87;;;4.67;;
3149;SDS011;32503;47.748;8.960;2022-08-01T00:58:53;4.97;;;4.77;;
3149;SDS011;32503;47.748;8.960;2022-08-01T01:01:21;4.23;;;4.13;;
3149;SDS011;32503;47.748;8.960;2022-08-01T01:03:49;4.80;;;4.60;;
3149;SDS011;32503;47.748;8.960;2022-08-01T01:06:25;6.37;;;4.63;;
3149;SDS011;32503;47.748;8.960;2022-08-01T01:09:15;4.60;;;4.40;;
3149;SDS011;32503;47.748;8.960;2022-08-01T01:11:57;4.67;;;4.47;;
3149;SDS011;32503;47.748;8.960;2022-08-01T01:14:38;5.90;;;5.40;;
3149;SDS011;32503;47.748;8.960;2022-08-01T01:17:11;5.17;;;4.97;;
3149;SDS011;32503;47.748;8.960;2022-08-01T01:19:46;5.07;;;4.87;;
3149;SDS011;32503;47.748;8.960;2022-08-01T01:22:21;5.33;;;5.03;;
3149;SDS011;32503;47.748;8.960;2022-08-01T01:25:04;5.27;;;4.97;;
3149;SDS011;32503;47.748;8.960;2022-08-01T01:27:49;5.53;;;5.23;;
3149;SDS011;32503;47.748;8.960;2022-08-01T01:30:29;4.80;;;4.60;;
3149;SDS011;32503;47.748;8.960;2022-08-01T01:33:00;5.40;;;5.20;;
3149;SDS011;32503;47.748;8.960;2022-08-01T01:35:32;5.20;;;5.00;;
3149;SDS011;32503;47.748;8.960;2022-08-01T01:38:05;5.17;;;4.97;;
3149;SDS011;32503;47.748;8.960;2022-08-01T01:40:38;4.90;;;4.70;;
3149;SDS011;32503;47.748;8.960;2022-08-01T01:43:06;5.10;;;4.90;;
3149;SDS011;32503;47.748;8.960;2022-08-01T01:45:38;4.77;;;4.57;;
3149;SDS011;32503;47.748;8.960;2022-08-01T01:48:07;5.17;;;5.07;;
3149;SDS011;32503;47.748;8.960;2022-08-01T01:50:39;4.87;;;4.67;;
3149;SDS011;32503;47.748;8.960;2022-08-01T01:53:08;4.60;;;4.40;;
3149;SDS011;32503;47.748;8.960;2022-08-01T01:55:38;5.07;;;4.87;;
3149;SDS011;32503;47.748;8.960;2022-08-01T01:58:07;5.37;;;5.17;;
3149;SDS011;32503;47.748;8.960;2022-08-01T02:00:39;4.70;;;4.50;;
3149;SDS011;32503;47.748;8.960;2022-08-01T02:03:07;4.70;;;4.50;;
3149;SDS011;32503;47.748;8.960;2022-08-01T02:05:38;5.17;;;4.97;;
3149;SDS011;32503;47.748;8.960;2022-08-01T02:08:07;5.37;;;5.07;;
3149;SDS011;32503;47.748;8.960;2022-08-01T02:10:38;4.73;;;4.53;;
3149;SDS011;32503;47.748;8.960;2022-08-01T02:13:06;6.00;;;5.60;;
3149;SDS011;32503;47.748;8.960;2022-08-01T02:15:36;4.50;;;4.30;;
3149;SDS011;32503;47.748;8.960;2022-08-01T02:18:05;5.70;;;5.40;;
3149;SDS011;32503;47.748;8.960;2022-08-01T02:20:33;5.37;;;5.13;;
3149;SDS011;32503;47.748;8.960;2022-08-01T02:23:05;4.90;;;4.70;;
3149;SDS011;32503;47.748;8.960;2022-08-01T02:25:38;5.27;;;5.07;;
3149;SDS011;32503;47.748;8.960;2022-08-01T02:28:13;5.00;;;4.90;;
3149;SDS011;32503;47.748;8.960;2022-08-01T02:30:49;4.87;;;4.57;;
3149;SDS011;32503;47.748;8.960;2022-08-01T02:33:17;4.87;;;4.67;;
3149;SDS011;32503;47.748;8.960;2022-08-01T02:35:48;4.87;;;4.67;;
3149;SDS011;32503;47.748;8.960;2022-08-01T02:38:20;5.30;;;5.10;;
3149;SDS011;32503;47.748;8.960;2022-08-01T02:40:52;4.80;;;4.60;;
3149;SDS011;32503;47.748;8.960;2022-08-01T02:43:25;4.90;;;4.70;;
3149;SDS011;32503;47.748;8.960;2022-08-01T02:45:57;4.80;;;4.60;;
3149;SDS011;32503;47.748;8.960;2022-08-01T02:48:28;5.17;;;4.97;;
3149;SDS011;32503;47.748;8.960;2022-08-01T02:50:59;5.23;;;5.03;;
3149;SDS011;32503;47.748;8.960;2022-08-01T02:53:29;5.03;;;4.87;;
3149;SDS011;32503;47.748;8.960;2022-08-01T02:56:02;5.53;;;5.33;;
3149;SDS011;32503;47.748;8.960;2022-08-01T02:58:30;4.83;;;4.70;;
3149;SDS011;32503;47.748;8.960;2022-08-01T03:01:01;4.73;;;4.53;;
3149;SDS011;32503;47.748;8.960;2022-08-01T03:03:29;5.03;;;4.63;;
3149;SDS011;32503;47.748;8.960;2022-08-01T03:05:57;5.17;;;4.83;;
3149;SDS011;32503;47.748;8.960;2022-08-01T03:08:25;4.77;;;4.67;;
3149;SDS011;32503;47.748;8.960;2022-08-01T03:10:55;4.60;;;4.40;;
3149;SDS011;32503;47.748;8.960;2022-08-01T03:13:25;4.70;;;4.47;;
3149;SDS011;32503;47.748;8.960;2022-08-01T03:15:53;5.57;;;5.23;;
3149;SDS011;32503;47.748;8.960;2022-08-01T03:18:23;4.73;;;4.53;;
3149;SDS011;32503;47.748;8.960;2022-08-01T03:20:52;5.50;;;5.17;;
3149;SDS011;32503;47.748;8.960;2022-08-01T03:23:21;4.50;;;4.30;;
3149;SDS011;32503;47.748;8.960;2022-08-01T03:25:50;5.00;;;4.80;;
3149;SDS011;32503;47.748;8.960;2022-08-01T03:28:19;5.17;;;4.87;;
3149;SDS011;32503;47.748;8.960;2022-08-01T03:30:48;4.87;;;4.67;;
3149;SDS011;32503;47.748;8.960;2022-08-01T03:33:17;4.23;;;4.03;;
3149;SDS011;32503;47.748;8.960;2022-08-01T03:35:47;4.33;;;4.13;;
3149;SDS011;32503;47.748;8.960;2022-08-01T03:38:19;5.23;;;4.30;;
3149;SDS011;32503;47.748;8.960;2022-08-01T03:40:52;4.17;;;3.97;;
3149;SDS011;32503;47.748;8.960;2022-08-01T03:43:25;5.00;;;4.80;;
3149;SDS011;32503;47.748;8.960;2022-08-01T03:46:01;5.00;;;4.80;;
3149;SDS011;32503;47.748;8.960;2022-08-01T03:48:34;5.30;;;5.00;;
3149;SDS011;32503;47.748;8.960;2022-08-01T03:51:08;5.23;;;5.00;;
3149;SDS011;32503;47.748;8.960;2022-08-01T03:53:37;5.20;;;5.00;;
3149;SDS011;32503;47.748;8.960;2022-08-01T03:56:06;5.17;;;4.97;;
3149;SDS011;32503;47.748;8.960;2022-08-01T03:58:36;5.70;;;5.30;;
3149;SDS011;32503;47.748;8.960;2022-08-01T04:01:05;5.77;;;5.37;;
3149;SDS011;32503;47.748;8.960;2022-08-01T04:03:34;4.97;;;4.77;;
3149;SDS011;32503;47.748;8.960;2022-08-01T04:06:03;5.10;;;4.90;;
3149;SDS011;32503;47.748;8.960;2022-08-01T04:08:37;4.90;;;4.70;;
3149;SDS011;32503;47.748;8.960;2022-08-01T04:11:07;5.37;;;5.17;;
3149;SDS011;32503;47.748;8.960;2022-08-01T04:13:35;5.47;;;5.17;;
3149;SDS011;32503;47.748;8.960;2022-08-01T04:16:03;5.27;;;5.07;;
3149;SDS011;32503;47.748;8.960;2022-08-01T04:18:31;5.20;;;4.80;;
3149;SDS011;32503;47.748;8.960;2022-08-01T04:20:58;5.17;;;4.87;;
3149;SDS011;32503;47.748;8.960;2022-08-01T04:23:25;5.50;;;5.30;;
3149;SDS011;32503;47.748;8.960;2022-08-01T04:25:55;5.37;;;5.17;;
3149;SDS011;32503;47.748;8.960;2022-08-01T04:28:23;6.50;;;6.10;;
3149;SDS011;32503;47.748;8.960;2022-08-01T04:30:52;5.50;;;5.10;;
3149;SDS011;32503;47.748;8.960;2022-08-01T04:33:21;5.30;;;5.00;;
3149;SDS011;32503;47.748;8.960;2022-08-01T04:35:50;4.83;;;4.63;;
3149;SDS011;32503;47.748;8.960;2022-08-01T04:38:19;5.43;;;5.23;;
3149;SDS011;32503;47.748;8.960;2022-08-01T04:40:52;4.80;;;4.60;;
3149;SDS011;32503;47.748;8.960;2022-08-01T04:43:22;5.57;;;5.23;;
3149;SDS011;32503;47.748;8.960;2022-08-01T04:45:50;4.90;;;4.70;;
3149;SDS011;32503;47.748;8.960;2022-08-01T04:48:17;4.47;;;4.27;;
3149;SDS011;32503;47.748;8.960;2022-08-01T04:50:45;5.83;;;5.40;;
3149;SDS011;32503;47.748;8.960;2022-08-01T04:53:13;6.67;;;6.27;;
3149;SDS011;32503;47.748;8.960;2022-08-01T04:55:41;4.97;;;4.77;;
3149;SDS011;32503;47.748;8.960;2022-08-01T04:58:10;5.03;;;4.77;;
3149;SDS011;32503;47.748;8.960;2022-08-01T05:00:38;4.87;;;4.67;;
3149;SDS011;32503;47.748;8.960;2022-08-01T05:03:05;5.40;;;5.10;;
3149;SDS011;32503;47.748;8.960;2022-08-01T05:05:33;4.90;;;4.70;;
3149;SDS011;32503;47.748;8.960;2022-08-01T05:08:00;5.60;;;4.97;;
3149;SDS011;32503;47.748;8.960;2022-08-01T05:10:28;4.83;;;4.53;;
3149;SDS011;32503;47.748;8.960;2022-08-01T05:12:55;4.70;;;4.50;;
3149;SDS011;32503;47.748;8.960;2022-08-01T05:15:24;5.30;;;5.10;;
3149;SDS011;32503;47.748;8.960;2022-08-01T05:17:52;4.80;;;4.50;;
3149;SDS011;32503;47.748;8.960;2022-08-01T05:20:19;5.40;;;5.20;;
3149;SDS011;32503;47.748;8.960;2022-08-01T05:22:46;5.10;;;4.80;;
3149;SDS011;32503;47.748;8.960;2022-08-01T05:25:13;6.17;;;5.80;;
3149;SDS011;32503;47.748;8.960;2022-08-01T05:27:40;5.80;;;5.50;;
3149;SDS011;32503;47.748;8.960;2022-08-01T05:30:08;5.00;;;4.80;;
3149;SDS011;32503;47.748;8.960;2022-08-01T05:32:37;5.40;;;5.07;;
3149;SDS011;32503;47.748;8.960;2022-08-01T05:35:06;5.00;;;4.80;;
3149;SDS011;32503;47.748;8.960;2022-08-01T05:37:34;5.13;;;4.83;;
3149;SDS011;32503;47.748;8.960;2022-08-01T05:40:02;5.10;;;4.80;;
3149;SDS011;32503;47.748;8.960;2022-08-01T05:42:30;5.83;;;5.33;;
3149;SDS011;32503;47.748;8.960;2022-08-01T05:44:57;9.20;;;5.60;;
3149;SDS011;32503;47.748;8.960;2022-08-01T05:47:25;4.80;;;4.60;;
3149;SDS011;32503;47.748;8.960;2022-08-01T05:49:53;5.00;;;4.80;;
3149;SDS011;32503;47.748;8.960;2022-08-01T05:52:20;4.03;;;3.93;;
3149;SDS011;32503;47.748;8.960;2022-08-01T05:54:47;4.40;;;4.20;;
3149;SDS011;32503;47.748;8.960;2022-08-01T05:57:14;5.47;;;4.57;;
3149;SDS011;32503;47.748;8.960;2022-08-01T05:59:41;5.17;;;4.97;;
3149;SDS011;32503;47.748;8.960;2022-08-01T06:02:09;7.93;;;4.87;;
3149;SDS011;32503;47.748;8.960;2022-08-01T06:04:36;4.97;;;4.57;;
3149;SDS011;32503;47.748;8.960;2022-08-01T06:07:04;4.20;;;4.00;;
3149;SDS011;32503;47.748;8.960;2022-08-01T06:09:31;4.20;;;4.10;;
3149;SDS011;32503;47.748;8.960;2022-08-01T06:11:58;4.70;;;4.40;;
3149;SDS011;32503;47.748;8.960;2022-08-01T06:14:25;4.53;;;4.30;;
3149;SDS011;32503;47.748;8.960;2022-08-01T06:16:53;4.80;;;4.50;;
3149;SDS011;32503;47.748;8.960;2022-08-01T06:19:20;5.63;;;4.43;;
3149;SDS011;32503;47.748;8.960;2022-08-01T06:21:47;8.47;;;4.97;;
3149;SDS011;32503;47.748;8.960;2022-08-01T06:24:15;5.33;;;5.03;;
3149;SDS011;32503;47.748;8.960;2022-08-01T06:26:42;4.73;;;4.53;;
3149;SDS011;32503;47.748;8.960;2022-08-01T06:29:10;4.60;;;4.40;;
3149;SDS011;32503;47.748;8.960;2022-08-01T06:31:38;4.73;;;4.47;;
3149;SDS011;32503;47.748;8.960;2022-08-01T06:34:05;5.30;;;4.90;;
3149;SDS011;32503;47.748;8.960;2022-08-01T06:36:32;4.77;;;4.40;;
3149;SDS011;32503;47.748;8.960;2022-08-01T06:38:59;4.43;;;4.23;;
3149;SDS011;32503;47.748;8.960;2022-08-01T06:41:27;7.00;;;4.47;;
3149;SDS011;32503;47.748;8.960;2022-08-01T06:43:54;4.17;;;3.97;;
3149;SDS011;32503;47.748;8.960;2022-08-01T06:46:21;4.50;;;4.37;;
3149;SDS011;32503;47.748;8.960;2022-08-01T06:48:48;4.00;;;3.70;;
3149;SDS011;32503;47.748;8.960;2022-08-01T06:51:16;3.67;;;3.57;;
3149;SDS011;32503;47.748;8.960;2022-08-01T06:53:45;4.10;;;3.90;;
3149;SDS011;32503;47.748;8.960;2022-08-01T06:56:12;3.90;;;3.60;;
3149;SDS011;32503;47.748;8.960;2022-08-01T06:58:41;4.35;;;4.15;;
3149;SDS011;32503;47.748;8.960;2022-08-01T07:01:08;5.27;;;4.40;;
3149;SDS011;32503;47.748;8.960;2022-08-01T07:03:35;3.70;;;3.60;;
3149;SDS011;32503;47.748;8.960;2022-08-01T07:06:03;4.07;;;3.77;;
3149;SDS011;32503;47.748;8.960;2022-08-01T07:08:36;4.20;;;4.00;;
3149;SDS011;32503;47.748;8.960;2022-08-01T07:11:03;4.23;;;4.03;;
3149;SDS011;32503;47.748;8.960;2022-08-01T07:13:30;4.37;;;4.17;;
3149;SDS011;32503;47.748;8.960;2022-08-01T07:15:59;4.60;;;4.37;;
3149;SDS011;32503;47.748;8.960;2022-08-01T07:18:26;4.07;;;3.87;;
3149;SDS011;32503;47.748;8.960;2022-08-01T07:20:53;4.70;;;4.40;;
3149;SDS011;32503;47.748;8.960;2022-08-01T07:23:21;4.47;;;4.30;;
3149;SDS011;32503;47.748;8.960;2022-08-01T07:25:48;4.93;;;4.70;;
3149;SDS011;32503;47.748;8.960;2022-08-01T07:28:17;4.47;;;4.07;;
3149;SDS011;32503;47.748;8.960;2022-08-01T07:30:44;4.80;;;4.50;;
3149;SDS011;32503;47.748;8.960;2022-08-01T07:33:13;4.73;;;4.53;;
3149;SDS011;32503;47.748;8.960;2022-08-01T07:35:40;5.50;;;5.20;;
3149;SDS011;32503;47.748;8.960;2022-08-01T07:38:09;6.93;;;5.73;;
3149;SDS011;32503;47.748;8.960;2022-08-01T07:40:36;7.70;;;5.63;;
3149;SDS011;32503;47.748;8.960;2022-08-01T07:43:03;5.20;;;4.90;;
3149;SDS011;32503;47.748;8.960;2022-08-01T07:45:30;7.93;;;5.13;;
3149;SDS011;32503;47.748;8.960;2022-08-01T07:48:01;4.70;;;4.50;;
3149;SDS011;32503;47.748;8.960;2022-08-01T07:50:31;5.17;;;4.80;;
3149;SDS011;32503;47.748;8.960;2022-08-01T07:52:58;4.90;;;4.60;;
3149;SDS011;32503;47.748;8.960;2022-08-01T07:55:27;4.93;;;4.73;;
3149;SDS011;32503;47.748;8.960;2022-08-01T07:57:54;4.10;;;3.90;;
3149;SDS011;32503;47.748;8.960;2022-08-01T08:00:21;4.80;;;4.60;;
3149;SDS011;32503;47.748;8.960;2022-08-01T08:02:50;5.20;;;4.90;;
3149;SDS011;32503;47.748;8.960;2022-08-01T08:05:18;5.53;;;4.60;;
3149;SDS011;32503;47.748;8.960;2022-08-01T08:07:47;4.80;;;4.47;;
3149;SDS011;32503;47.748;8.960;2022-08-01T08:10:14;4.93;;;4.63;;
3149;SDS011;32503;47.748;8.960;2022-08-01T08:12:41;5.13;;;4.73;;
3149;SDS011;32503;47.748;8.960;2022-08-01T08:15:09;4.70;;;4.40;;
3149;SDS011;32503;47.748;8.960;2022-08-01T08:17:36;4.97;;;4.77;;
3149;SDS011;32503;47.748;8.960;2022-08-01T08:20:04;4.80;;;4.60;;
3149;SDS011;32503;47.748;8.960;2022-08-01T08:22:33;4.27;;;4.07;;
3149;SDS011;32503;47.748;8.960;2022-08-01T08:25:02;4.10;;;3.90;;
3149;SDS011;32503;47.748;8.960;2022-08-01T08:27:30;4.10;;;4.00;;
3149;SDS011;32503;47.748;8.960;2022-08-01T08:29:58;5.47;;;4.40;;
3149;SDS011;32503;47.748;8.960;2022-08-01T08:32:25;8.17;;;5.03;;
3149;SDS011;32503;47.748;8.960;2022-08-01T08:34:52;4.80;;;4.50;;
3149;SDS011;32503;47.748;8.960;2022-08-01T08:37:19;4.67;;;4.47;;
3149;SDS011;32503;47.748;8.960;2022-08-01T08:39:46;5.47;;;4.40;;
3149;SDS011;32503;47.748;8.960;2022-08-01T08:42:14;4.67;;;4.27;;
3149;SDS011;32503;47.748;8.960;2022-08-01T08:44:42;4.50;;;4.30;;
3149;SDS011;32503;47.748;8.960;2022-08-01T08:47:10;4.30;;;4.00;;
3149;SDS011;32503;47.748;8.960;2022-08-01T08:49:39;4.30;;;4.10;;
3149;SDS011;32503;47.748;8.960;2022-08-01T08:52:10;4.63;;;4.43;;
3149;SDS011;32503;47.748;8.960;2022-08-01T08:54:38;3.90;;;3.80;;
3149;SDS011;32503;47.748;8.960;2022-08-01T08:57:08;4.00;;;3.80;;
3149;SDS011;32503;47.748;8.960;2022-08-01T08:59:40;4.10;;;3.80;;
3149;SDS011;32503;47.748;8.960;2022-08-01T09:02:09;4.27;;;4.10;;
3149;SDS011;32503;47.748;8.960;2022-08-01T09:04:37;4.20;;;4.00;;
3149;SDS011;32503;47.748;8.960;2022-08-01T09:07:05;3.90;;;3.60;;
3149;SDS011;32503;47.748;8.960;2022-08-01T09:09:33;4.97;;;4.77;;
3149;SDS011;32503;47.748;8.960;2022-08-01T09:12:02;4.33;;;4.20;;
3149;SDS011;32503;47.748;8.960;2022-08-01T09:14:30;4.40;;;4.30;;
3149;SDS011;32503;47.748;8.960;2022-08-01T09:17:02;5.30;;;4.80;;
3149;SDS011;32503;47.748;8.960;2022-08-01T09:19:36;4.60;;;4.40;;
3149;SDS011;32503;47.748;8.960;2022-08-01T09:22:07;4.50;;;4.40;;
3149;SDS011;32503;47.748;8.960;2022-08-01T09:24:36;4.87;;;4.67;;
3149;SDS011;32503;47.748;8.960;2022-08-01T09:27:15;5.40;;;5.20;;
3149;SDS011;32503;47.748;8.960;2022-08-01T09:29:44;5.00;;;4.80;;
3149;SDS011;32503;47.748;8.960;2022-08-01T09:32:12;4.73;;;4.47;;
3149;SDS011;32503;47.748;8.960;2022-08-01T09:34:39;5.20;;;4.80;;
3149;SDS011;32503;47.748;8.960;2022-08-01T09:37:06;5.90;;;5.57;;
3149;SDS011;32503;47.748;8.960;2022-08-01T09:39:35;4.87;;;4.67;;
3149;SDS011;32503;47.748;8.960;2022-08-01T09:42:20;5.33;;;5.03;;
3149;SDS011;32503;47.748;8.960;2022-08-01T09:44:49;4.93;;;4.63;;
3149;SDS011;32503;47.748;8.960;2022-08-01T09:47:19;4.90;;;4.70;;
3149;SDS011;32503;47.748;8.960;2022-08-01T09:49:53;4.43;;;4.17;;
3149;SDS011;32503;47.748;8.960;2022-08-01T09:52:25;5.83;;;5.10;;
3149;SDS011;32503;47.748;8.960;2022-08-01T09:54:54;6.00;;;5.50;;
3149;SDS011;32503;47.748;8.960;2022-08-01T09:57:24;3.80;;;3.70;;
3149;SDS011;32503;47.748;8.960;2022-08-01T09:59:52;5.00;;;4.70;;
3149;SDS011;32503;47.748;8.960;2022-08-01T10:05:09;4.60;;;4.30;;
3149;SDS011;32503;47.748;8.960;2022-08-01T10:07:55;4.87;;;4.60;;
3149;SDS011;32503;47.748;8.960;2022-08-01T10:10:24;4.60;;;4.43;;
3149;SDS011;32503;47.748;8.960;2022-08-01T10:12:51;4.50;;;4.30;;
3149;SDS011;32503;47.748;8.960;2022-08-01T10:15:21;4.90;;;4.67;;
3149;SDS011;32503;47.748;8.960;2022-08-01T10:17:52;4.60;;;4.40;;
3149;SDS011;32503;47.748;8.960;2022-08-01T10:20:22;4.50;;;4.20;;
3149;SDS011;32503;47.748;8.960;2022-08-01T10:22:52;3.63;;;3.53;;
3149;SDS011;32503;47.748;8.960;2022-08-01T10:25:21;4.07;;;3.97;;
3149;SDS011;32503;47.748;8.960;2022-08-01T10:27:49;4.40;;;4.30;;
3149;SDS011;32503;47.748;8.960;2022-08-01T10:30:20;4.37;;;4.17;;
3149;SDS011;32503;47.748;8.960;2022-08-01T10:32:48;4.33;;;4.03;;
3149;SDS011;32503;47.748;8.960;2022-08-01T10:35:18;4.07;;;3.73;;
3149;SDS011;32503;47.748;8.960;2022-08-01T10:37:46;4.07;;;3.97;;
3149;SDS011;32503;47.748;8.960;2022-08-01T10:40:16;4.30;;;4.10;;
3149;SDS011;32503;47.748;8.960;2022-08-01T10:42:44;4.37;;;4.17;;
3149;SDS011;32503;47.748;8.960;2022-08-01T10:45:12;4.43;;;4.20;;
3149;SDS011;32503;47.748;8.960;2022-08-01T10:47:42;4.20;;;4.10;;
3149;SDS011;32503;47.748;8.960;2022-08-01T10:50:15;3.40;;;3.30;;
3149;SDS011;32503;47.748;8.960;2022-08-01T10:53:06;3.80;;;3.60;;
3149;SDS011;32503;47.748;8.960;2022-08-01T10:55:46;4.13;;;3.93;;
3149;SDS011;32503;47.748;8.960;2022-08-01T10:58:19;3.60;;;3.40;;
3149;SDS011;32503;47.748;8.960;2022-08-01T11:06:42;3.53;;;3.43;;
3149;SDS011;32503;47.748;8.960;2022-08-01T11:09:30;3.27;;;3.17;;
3149;SDS011;32503;47.748;8.960;2022-08-01T11:12:06;3.40;;;3.20;;
3149;SDS011;32503;47.748;8.960;2022-08-01T11:17:50;3.10;;;2.90;;
3149;SDS011;32503;47.748;8.960;2022-08-01T11:20:19;3.23;;;3.13;;
3149;SDS011;32503;47.748;8.960;2022-08-01T11:26:10;2.90;;;2.80;;
3149;SDS011;32503;47.748;8.960;2022-08-01T11:28:39;2.60;;;2.50;;
3149;SDS011;32503;47.748;8.960;2022-08-01T11:31:28;2.77;;;2.57;;
3149;SDS011;32503;47.748;8.960;2022-08-01T11:33:57;3.17;;;3.07;;
3149;SDS011;32503;47.748;8.960;2022-08-01T11:36:26;2.60;;;2.50;;
3149;SDS011;32503;47.748;8.960;2022-08-01T11:39:13;3.00;;;2.80;;
3149;SDS011;32503;47.748;8.960;2022-08-01T11:41:43;3.07;;;2.77;;
3149;SDS011;32503;47.748;8.960;2022-08-01T11:44:14;3.00;;;2.90;;
3149;SDS011;32503;47.748;8.960;2022-08-01T11:46:48;2.30;;;2.10;;
3149;SDS011;32503;47.748;8.960;2022-08-01T11:49:22;2.97;;;2.87;;
3149;SDS011;32503;47.748;8.960;2022-08-01T11:52:13;2.50;;;2.40;;
3149;SDS011;32503;47.748;8.960;2022-08-01T11:54:44;2.13;;;2.03;;
3149;SDS011;32503;47.748;8.960;2022-08-01T11:57:14;3.13;;;3.03;;
3149;SDS011;32503;47.748;8.960;2022-08-01T11:59:45;2.53;;;2.43;;
3149;SDS011;32503;47.748;8.960;2022-08-01T12:02:15;3.30;;;3.20;;
3149;SDS011;32503;47.748;8.960;2022-08-01T12:04:48;2.50;;;2.40;;
3149;SDS011;32503;47.748;8.960;2022-08-01T12:07:19;2.27;;;2.17;;
3149;SDS011;32503;47.748;8.960;2022-08-01T12:09:48;2.30;;;2.20;;
3149;SDS011;32503;47.748;8.960;2022-08-01T12:12:25;2.30;;;2.20;;
3149;SDS011;32503;47.748;8.960;2022-08-01T12:14:53;2.93;;;2.73;;
3149;SDS011;32503;47.748;8.960;2022-08-01T12:17:29;2.47;;;2.27;;
3149;SDS011;32503;47.748;8.960;2022-08-01T12:19:59;2.77;;;2.67;;
3149;SDS011;32503;47.748;8.960;2022-08-01T12:22:27;2.50;;;2.40;;
3149;SDS011;32503;47.748;8.960;2022-08-01T12:24:55;2.40;;;2.20;;
3149;SDS011;32503;47.748;8.960;2022-08-01T12:27:32;2.40;;;2.30;;
3149;SDS011;32503;47.748;8.960;2022-08-01T12:30:00;2.20;;;2.10;;
3149;SDS011;32503;47.748;8.960;2022-08-01T12:32:31;2.30;;;2.20;;
3149;SDS011;32503;47.748;8.960;2022-08-01T12:35:01;2.37;;;2.27;;
3149;SDS011;32503;47.748;8.960;2022-08-01T12:37:31;2.33;;;2.23;;
3149;SDS011;32503;47.748;8.960;2022-08-01T12:40:06;1.90;;;1.80;;
3149;SDS011;32503;47.748;8.960;2022-08-01T12:42:38;2.40;;;2.30;;
3149;SDS011;32503;47.748;8.960;2022-08-01T12:45:08;2.50;;;2.40;;
3149;SDS011;32503;47.748;8.960;2022-08-01T12:47:38;2.23;;;2.13;;
3149;SDS011;32503;47.748;8.960;2022-08-01T12:50:06;2.20;;;2.00;;
3149;SDS011;32503;47.748;8.960;2022-08-01T12:52:38;1.93;;;1.83;;
3149;SDS011;32503;47.748;8.960;2022-08-01T12:55:11;2.53;;;2.33;;
3149;SDS011;32503;47.748;8.960;2022-08-01T12:57:43;2.07;;;1.97;;
3149;SDS011;32503;47.748;8.960;2022-08-01T13:00:18;2.43;;;2.33;;
3149;SDS011;32503;47.748;8.960;2022-08-01T13:02:48;2.20;;;2.10;;
3149;SDS011;32503;47.748;8.960;2022-08-01T13:05:27;2.27;;;2.07;;
3149;SDS011;32503;47.748;8.960;2022-08-01T13:08:09;1.70;;;1.60;;
3149;SDS011;32503;47.748;8.960;2022-08-01T13:10:39;2.00;;;1.90;;
3149;SDS011;32503;47.748;8.960;2022-08-01T13:13:07;1.87;;;1.77;;
3149;SDS011;32503;47.748;8.960;2022-08-01T13:15:35;1.50;;;1.40;;
3149;SDS011;32503;47.748;8.960;2022-08-01T13:21:01;1.60;;;1.50;;
3149;SDS011;32503;47.748;8.960;2022-08-01T13:23:35;1.60;;;1.50;;
3149;SDS011;32503;47.748;8.960;2022-08-01T13:26:04;1.93;;;1.30;;
3149;SDS011;32503;47.748;8.960;2022-08-01T13:28:32;1.30;;;1.20;;
3149;SDS011;32503;47.748;8.960;2022-08-01T13:31:02;1.50;;;1.40;;
3149;SDS011;32503;47.748;8.960;2022-08-01T13:33:39;1.60;;;1.40;;
3149;SDS011;32503;47.748;8.960;2022-08-01T13:36:08;2.30;;;1.43;;
3149;SDS011;32503;47.748;8.960;2022-08-01T13:38:36;1.40;;;1.30;;
3149;SDS011;32503;47.748;8.960;2022-08-01T13:41:22;1.60;;;1.50;;
3149;SDS011;32503;47.748;8.960;2022-08-01T13:43:49;1.77;;;1.67;;
3149;SDS011;32503;47.748;8.960;2022-08-01T13:46:16;1.23;;;1.17;;
3149;SDS011;32503;47.748;8.960;2022-08-01T13:48:44;1.47;;;1.37;;
3149;SDS011;32503;47.748;8.960;2022-08-01T13:51:11;1.50;;;1.40;;
3149;SDS011;32503;47.748;8.960;2022-08-01T13:53:38;1.13;;;1.13;;
3149;SDS011;32503;47.748;8.960;2022-08-01T13:56:05;1.33;;;1.23;;
3149;SDS011;32503;47.748;8.960;2022-08-01T13:58:33;2.30;;;1.30;;
3149;SDS011;32503;47.748;8.960;2022-08-01T14:01:00;2.70;;;1.20;;
3149;SDS011;32503;47.748;8.960;2022-08-01T14:03:28;1.53;;;1.00;;
3149;SDS011;32503;47.748;8.960;2022-08-01T14:05:55;1.00;;;1.00;;
3149;SDS011;32503;47.748;8.960;2022-08-01T14:08:23;1.50;;;1.40;;
3149;SDS011;32503;47.748;8.960;2022-08-01T14:10:50;1.07;;;1.00;;
3149;SDS011;32503;47.748;8.960;2022-08-01T14:13:18;1.50;;;1.40;;
3149;SDS011;32503;47.748;8.960;2022-08-01T14:15:47;1.80;;;1.70;;
3149;SDS011;32503;47.748;8.960;2022-08-01T14:18:15;1.03;;;0.90;;
3149;SDS011;32503;47.748;8.960;2022-08-01T14:20:42;3.30;;;0.97;;
3149;SDS011;32503;47.748;8.960;2022-08-01T14:23:10;0.90;;;0.90;;
3149;SDS011;32503;47.748;8.960;2022-08-01T14:25:37;1.10;;;1.00;;
3149;SDS011;32503;47.748;8.960;2022-08-01T14:28:05;1.50;;;1.40;;
3149;SDS011;32503;47.748;8.960;2022-08-01T14:30:33;1.63;;;1.20;;
3149;SDS011;32503;47.748;8.960;2022-08-01T14:33:01;1.40;;;1.00;;
3149;SDS011;32503;47.748;8.960;2022-08-01T14:35:29;1.37;;;1.27;;
3149;SDS011;32503;47.748;8.960;2022-08-01T14:37:56;1.00;;;0.90;;
3149;SDS011;32503;47.748;8.960;2022-08-01T14:40:23;1.50;;;1.40;;
3149;SDS011;32503;47.748;8.960;2022-08-01T14:42:50;1.60;;;1.50;;
3149;SDS011;32503;47.748;8.960;2022-08-01T14:45:17;1.37;;;1.27;;
3149;SDS011;32503;47.748;8.960;2022-08-01T14:47:44;1.60;;;1.50;;
3149;SDS011;32503;47.748;8.960;2022-08-01T14:50:13;1.40;;;1.30;;
3149;SDS011;32503;47.748;8.960;2022-08-01T14:52:42;1.93;;;1.83;;
3149;SDS011;32503;47.748;8.960;2022-08-01T14:55:10;1.90;;;1.80;;
3149;SDS011;32503;47.748;8.960;2022-08-01T14:57:38;1.50;;;1.40;;
3149;SDS011;32503;47.748;8.960;2022-08-01T15:00:07;1.50;;;1.40;;
3149;SDS011;32503;47.748;8.960;2022-08-01T15:02:38;3.67;;;1.77;;
3149;SDS011;32503;47.748;8.960;2022-08-01T15:05:06;1.80;;;1.70;;
3149;SDS011;32503;47.748;8.960;2022-08-01T15:07:35;1.67;;;1.57;;
3149;SDS011;32503;47.748;8.960;2022-08-01T15:10:03;1.83;;;1.73;;
3149;SDS011;32503;47.748;8.960;2022-08-01T15:12:32;1.40;;;1.30;;
3149;SDS011;32503;47.748;8.960;2022-08-01T15:14:59;1.53;;;1.40;;
3149;SDS011;32503;47.748;8.960;2022-08-01T15:17:27;1.80;;;1.70;;
3149;SDS011;32503;47.748;8.960;2022-08-01T15:19:57;1.93;;;1.83;;
3149;SDS011;32503;47.748;8.960;2022-08-01T15:22:27;2.90;;;1.73;;
3149;SDS011;32503;47.748;8.960;2022-08-01T15:24:57;1.33;;;1.23;;
3149;SDS011;32503;47.748;8.960;2022-08-01T15:27:25;1.73;;;1.63;;
3149;SDS011;32503;47.748;8.960;2022-08-01T15:29:54;2.23;;;2.13;;
3149;SDS011;32503;47.748;8.960;2022-08-01T15:32:22;1.90;;;1.80;;
3149;SDS011;32503;47.748;8.960;2022-08-01T15:34:50;2.00;;;1.90;;